createdAt,value
2022-11-29T00:01:19.756Z,13.43
2022-11-29T00:03:46.905Z,13.63
2022-11-29T00:06:22.763Z,13.27
2022-11-29T00:08:49.814Z,12.83
2022-11-29T00:11:37.782Z,14.13
2022-11-29T00:14:08.242Z,13.10
2022-11-29T00:16:35.188Z,14.40
2022-11-29T00:19:02.360Z,12.70
2022-11-29T00:21:29.176Z,14.00
2022-11-29T00:23:55.763Z,12.87
2022-11-29T00:26:23.345Z,13.63
2022-11-29T00:28:50.446Z,13.10
2022-11-29T00:31:22.015Z,13.37
2022-11-29T00:33:49.209Z,13.23
2022-11-29T00:36:16.019Z,12.97
2022-11-29T00:38:42.859Z,13.00
2022-11-29T00:41:10.457Z,12.57
2022-11-29T00:43:37.881Z,12.83
2022-11-29T00:46:05.207Z,13.73
2022-11-29T00:48:31.718Z,12.70
2022-11-29T00:50:58.369Z,12.53
2022-11-29T00:53:24.826Z,12.87
2022-11-29T00:55:52.102Z,13.73
2022-11-29T00:58:19.868Z,14.10
2022-11-29T01:00:46.388Z,13.00
2022-11-29T01:03:13.209Z,13.10
2022-11-29T01:05:40.448Z,12.47
2022-11-29T01:08:06.980Z,12.17
2022-11-29T01:10:33.785Z,13.93
2022-11-29T01:13:00.262Z,13.67
2022-11-29T01:15:27.200Z,12.37
2022-11-29T01:17:53.759Z,11.63
2022-11-29T01:20:20.643Z,11.27
2022-11-29T01:22:47.129Z,11.13
2022-11-29T01:25:14.352Z,10.70
2022-11-29T01:27:41.572Z,9.70
2022-11-29T01:30:10.156Z,10.23
2022-11-29T01:32:37.471Z,10.63
2022-11-29T01:35:05.501Z,9.97
2022-11-29T01:37:32.394Z,9.53
2022-11-29T01:39:59.174Z,9.50
2022-11-29T01:42:25.845Z,8.93
2022-11-29T01:45:20.463Z,8.00
2022-11-29T01:47:48.095Z,7.87
2022-11-29T01:50:14.847Z,8.27
2022-11-29T01:52:42.081Z,7.53
2022-11-29T01:55:09.809Z,7.43
2022-11-29T01:57:39.295Z,6.67
2022-11-29T02:00:11.929Z,7.33
2022-11-29T02:02:49.122Z,6.57
2022-11-29T02:05:17.053Z,6.77
2022-11-29T02:07:46.951Z,7.67
2022-11-29T02:10:14.182Z,7.40
2022-11-29T02:12:59.648Z,7.77
2022-11-29T02:15:45.237Z,7.90
2022-11-29T02:18:15.559Z,8.40
2022-11-29T02:21:10.033Z,8.13
2022-11-29T02:24:04.819Z,8.60
2022-11-29T02:26:53.191Z,9.37
2022-11-29T02:29:38.658Z,8.93
2022-11-29T02:32:42.850Z,8.87
2022-11-29T02:35:18.481Z,9.10
2022-11-29T02:38:00.632Z,10.37
2022-11-29T02:40:39.295Z,9.70
2022-11-29T02:43:18.119Z,9.57
2022-11-29T02:46:17.167Z,11.73
2022-11-29T02:48:54.319Z,10.87
2022-11-29T02:51:35.136Z,9.70
2022-11-29T02:54:12.476Z,11.27
2022-11-29T02:56:57.112Z,10.30
2022-11-29T02:59:29.874Z,10.10
2022-11-29T03:02:09.219Z,9.63
2022-11-29T03:04:55.589Z,10.50
2022-11-29T03:07:31.209Z,9.50
2022-11-29T03:10:22.324Z,10.13
2022-11-29T03:12:50.696Z,10.23
2022-11-29T03:15:41.839Z,9.90
2022-11-29T03:18:34.725Z,10.60
2022-11-29T03:21:26.434Z,11.00
2022-11-29T03:23:55.548Z,10.63
2022-11-29T03:26:41.826Z,11.30
2022-11-29T03:29:22.758Z,11.67
2022-11-29T03:32:08.957Z,11.67
2022-11-29T03:34:39.910Z,12.73
2022-11-29T03:37:14.012Z,12.53
2022-11-29T03:39:51.444Z,12.63
2022-11-29T03:42:23.549Z,13.07
2022-11-29T03:45:05.278Z,13.03
2022-11-29T03:47:36.244Z,11.80
2022-11-29T03:50:07.648Z,12.37
2022-11-29T03:52:38.425Z,29.30
2022-11-29T03:55:10.916Z,15.20
2022-11-29T03:58:15.376Z,13.03
2022-11-29T04:00:47.840Z,12.70
2022-11-29T04:03:42.401Z,12.57
2022-11-29T04:06:34.027Z,12.40
2022-11-29T04:09:42.384Z,12.43
2022-11-29T04:12:38.373Z,11.97
2022-11-29T04:15:26.094Z,12.63
2022-11-29T04:18:07.474Z,14.10
2022-11-29T04:20:48.387Z,13.57
2022-11-29T04:23:30.241Z,12.60
2022-11-29T04:25:59.869Z,12.80
2022-11-29T04:28:54.298Z,14.63
2022-11-29T04:31:33.343Z,13.60
2022-11-29T04:34:18.272Z,13.47
2022-11-29T04:37:03.102Z,13.70
2022-11-29T04:39:36.394Z,13.17
2022-11-29T04:42:08.732Z,13.07
2022-11-29T04:44:47.510Z,12.87
2022-11-29T04:47:43.624Z,13.30
2022-11-29T04:50:25.768Z,13.70
2022-11-29T04:53:01.368Z,13.80
2022-11-29T04:55:31.124Z,13.20
2022-11-29T04:58:14.448Z,13.77
2022-11-29T05:01:06.770Z,12.77
2022-11-29T05:03:45.709Z,13.57
2022-11-29T05:06:20.914Z,14.10
2022-11-29T05:09:15.846Z,13.13
2022-11-29T05:12:21.475Z,13.33
2022-11-29T05:14:57.574Z,12.87
2022-11-29T05:17:37.993Z,13.40
2022-11-29T05:20:29.300Z,13.00
2022-11-29T05:23:14.919Z,12.67
2022-11-29T05:25:50.722Z,13.20
2022-11-29T05:28:20.466Z,12.97
2022-11-29T05:31:13.539Z,13.87
2022-11-29T05:34:15.415Z,14.63
2022-11-29T05:37:06.594Z,14.07
2022-11-29T05:39:54.088Z,14.57
2022-11-29T05:42:53.218Z,14.47
2022-11-29T05:45:22.333Z,16.40
2022-11-29T05:48:03.096Z,16.20
2022-11-29T05:50:37.649Z,15.10
2022-11-29T05:53:20.337Z,16.93
2022-11-29T05:55:52.664Z,16.20
2022-11-29T05:58:38.647Z,17.17
2022-11-29T06:01:20.973Z,15.13
2022-11-29T06:04:14.454Z,14.53
2022-11-29T06:07:06.012Z,12.83
2022-11-29T06:09:38.128Z,13.73
2022-11-29T06:12:09.983Z,14.37
2022-11-29T06:15:04.418Z,14.30
2022-11-29T06:17:55.982Z,14.80
2022-11-29T06:20:37.645Z,14.30
2022-11-29T06:23:28.495Z,15.33
2022-11-29T06:26:34.442Z,14.50
2022-11-29T06:29:13.088Z,15.67
2022-11-29T06:31:44.174Z,15.57
2022-11-29T06:34:11.047Z,13.60
2022-11-29T06:37:02.467Z,14.17
2022-11-29T06:39:29.265Z,13.50
2022-11-29T06:41:55.948Z,14.00
2022-11-29T06:44:22.835Z,12.80
2022-11-29T06:46:57.061Z,13.70
2022-11-29T06:49:29.316Z,14.27
2022-11-29T06:52:01.897Z,12.93
2022-11-29T06:54:46.337Z,13.43
2022-11-29T06:57:34.880Z,13.60
2022-11-29T07:00:18.385Z,13.60
2022-11-29T07:03:23.609Z,13.27
2022-11-29T07:05:50.582Z,14.90
2022-11-29T07:08:23.223Z,14.87
2022-11-29T07:10:53.273Z,14.13
2022-11-29T07:13:20.563Z,14.53
2022-11-29T07:15:50.116Z,16.07
2022-11-29T07:18:28.370Z,15.70
2022-11-29T07:21:13.290Z,15.43
2022-11-29T07:24:17.884Z,15.20
2022-11-29T07:26:59.323Z,15.13
2022-11-29T07:30:05.105Z,15.00
2022-11-29T07:32:40.502Z,16.80
2022-11-29T07:35:17.694Z,16.40
2022-11-29T07:38:02.768Z,16.07
2022-11-29T07:40:37.423Z,15.57
2022-11-29T07:43:13.684Z,15.33
2022-11-29T07:45:40.275Z,13.93
2022-11-29T07:48:07.021Z,17.40
2022-11-29T07:50:35.509Z,15.73
2022-11-29T07:53:02.093Z,15.90
2022-11-29T07:55:29.756Z,14.53
2022-11-29T07:57:56.198Z,14.10
2022-11-29T08:00:23.379Z,14.33
2022-11-29T08:02:51.077Z,14.03
2022-11-29T08:05:17.842Z,13.33
2022-11-29T08:07:44.772Z,13.37
2022-11-29T08:10:14.511Z,13.97
2022-11-29T08:12:47.440Z,13.23
2022-11-29T08:15:14.026Z,13.07
2022-11-29T08:17:40.673Z,12.97
2022-11-29T08:20:08.725Z,13.80
2022-11-29T08:22:35.271Z,13.43
2022-11-29T08:25:01.849Z,14.23
2022-11-29T08:27:28.725Z,13.27
2022-11-29T08:29:55.197Z,14.00
2022-11-29T08:32:21.686Z,12.57
2022-11-29T08:34:48.348Z,13.63
2022-11-29T08:37:14.788Z,13.27
2022-11-29T08:39:41.496Z,13.33
2022-11-29T08:42:08.129Z,14.07
2022-11-29T08:44:34.690Z,14.37
2022-11-29T08:47:19.939Z,14.40
2022-11-29T08:50:01.464Z,15.53
2022-11-29T08:52:52.161Z,15.80
2022-11-29T08:55:20.332Z,14.67
2022-11-29T08:57:47.838Z,15.73
2022-11-29T09:00:15.390Z,15.23
2022-11-29T09:02:42.150Z,13.33
2022-11-29T09:05:09.776Z,14.50
2022-11-29T09:07:36.634Z,14.53
2022-11-29T09:10:05.951Z,15.50
2022-11-29T09:12:32.797Z,14.97
2022-11-29T09:14:59.268Z,15.37
2022-11-29T09:17:25.826Z,14.53
2022-11-29T09:19:52.359Z,15.50
2022-11-29T09:22:18.883Z,7.33
2022-11-29T09:24:47.174Z,12.60
2022-11-29T09:27:13.915Z,12.73
2022-11-29T09:29:40.468Z,11.07
2022-11-29T09:32:07.068Z,11.63
2022-11-29T09:34:33.799Z,12.23
2022-11-29T09:37:00.426Z,11.73
2022-11-29T09:39:26.966Z,12.00
2022-11-29T09:42:44.419Z,12.70
2022-11-29T09:45:18.448Z,13.87
2022-11-29T09:48:00.341Z,13.27
2022-11-29T09:50:43.119Z,13.40
2022-11-29T09:53:34.267Z,14.77
2022-11-29T09:56:30.502Z,13.80
2022-11-29T09:59:00.217Z,14.40
2022-11-29T10:01:29.734Z,15.13
2022-11-29T10:04:03.205Z,13.73
2022-11-29T10:06:38.637Z,15.17
2022-11-29T10:09:23.833Z,14.27
2022-11-29T10:11:57.392Z,15.43
2022-11-29T10:14:28.114Z,14.67
2022-11-29T10:17:06.503Z,14.47
2022-11-29T10:19:37.740Z,14.30
2022-11-29T10:22:07.943Z,13.90
2022-11-29T10:24:34.516Z,16.63
2022-11-29T10:27:01.188Z,16.90
2022-11-29T10:29:27.849Z,16.27
2022-11-29T10:31:56.686Z,17.00
2022-11-29T10:34:24.947Z,18.40
2022-11-29T10:36:51.437Z,18.33
2022-11-29T10:39:33.174Z,16.57
2022-11-29T10:42:04.028Z,17.00
2022-11-29T10:44:32.107Z,17.90
2022-11-29T10:47:00.525Z,16.33
2022-11-29T10:49:28.115Z,16.00
2022-11-29T10:51:54.603Z,16.83
2022-11-29T10:54:43.184Z,17.27
2022-11-29T10:57:15.484Z,19.00
2022-11-29T10:59:42.297Z,20.03
2022-11-29T11:02:18.845Z,19.53
2022-11-29T11:04:47.268Z,19.10
2022-11-29T11:07:24.621Z,19.67
2022-11-29T11:09:54.053Z,18.80
2022-11-29T11:12:23.403Z,18.17
2022-11-29T11:14:51.498Z,18.27
2022-11-29T11:17:26.048Z,17.83
2022-11-29T11:20:01.039Z,18.43
2022-11-29T11:22:29.241Z,18.07
2022-11-29T11:25:23.751Z,18.50
2022-11-29T11:27:50.450Z,17.90
2022-11-29T11:30:24.269Z,18.47
2022-11-29T11:33:34.263Z,18.03
2022-11-29T11:36:09.754Z,18.50
2022-11-29T11:38:42.425Z,18.80
2022-11-29T11:41:11.997Z,18.50
2022-11-29T11:43:39.319Z,20.40
2022-11-29T11:46:08.139Z,20.47
2022-11-29T11:48:35.391Z,20.53
2022-11-29T11:51:02.014Z,19.90
2022-11-29T11:53:36.469Z,22.37
2022-11-29T11:56:06.346Z,21.00
2022-11-29T11:58:52.458Z,19.43
2022-11-29T12:01:37.479Z,21.20
2022-11-29T12:04:16.359Z,20.20
2022-11-29T12:06:50.631Z,20.23
2022-11-29T12:09:37.708Z,21.67
2022-11-29T12:12:27.119Z,23.03
2022-11-29T12:15:29.231Z,22.47
2022-11-29T12:18:12.327Z,25.77
2022-11-29T12:20:58.816Z,27.10
2022-11-29T12:23:34.390Z,26.30
2022-11-29T12:26:34.522Z,26.47
2022-11-29T12:29:00.534Z,25.70
2022-11-29T12:31:45.336Z,29.43
2022-11-29T12:34:33.135Z,28.47
2022-11-29T12:37:35.076Z,27.93
2022-11-29T12:40:04.307Z,27.17
2022-11-29T12:42:52.429Z,25.70
2022-11-29T12:45:25.047Z,28.57
2022-11-29T12:47:57.533Z,27.90
2022-11-29T12:50:36.542Z,27.50
2022-11-29T12:53:27.635Z,29.87
2022-11-29T12:56:15.424Z,30.13
2022-11-29T12:58:56.167Z,30.67
2022-11-29T13:01:35.949Z,31.53
2022-11-29T13:04:39.878Z,34.23
2022-11-29T13:07:31.003Z,31.27
2022-11-29T13:10:11.470Z,30.67
2022-11-29T13:12:48.853Z,29.90
2022-11-29T13:15:38.062Z,29.67
2022-11-29T13:18:20.066Z,30.30
2022-11-29T13:20:58.911Z,27.83
2022-11-29T13:23:45.538Z,30.80
2022-11-29T13:26:15.108Z,32.10
2022-11-29T13:28:43.247Z,28.97
2022-11-29T13:31:14.738Z,30.73
2022-11-29T13:33:55.778Z,29.27
2022-11-29T13:36:59.716Z,28.37
2022-11-29T13:39:32.894Z,29.07
2022-11-29T13:42:11.622Z,25.97
2022-11-29T13:44:50.410Z,27.27
2022-11-29T13:47:18.732Z,25.60
2022-11-29T13:49:56.942Z,24.67
2022-11-29T13:52:27.859Z,25.33
2022-11-29T13:55:22.987Z,24.33
2022-11-29T13:58:19.673Z,24.30
2022-11-29T14:00:46.144Z,25.00
2022-11-29T14:03:21.881Z,22.80
2022-11-29T14:05:50.546Z,23.23
2022-11-29T14:08:27.052Z,26.10
2022-11-29T14:10:55.727Z,24.90
2022-11-29T14:13:27.306Z,24.83
2022-11-29T14:15:56.412Z,22.97
2022-11-29T14:18:47.895Z,23.77
2022-11-29T14:21:14.443Z,22.40
2022-11-29T14:23:44.404Z,20.70
2022-11-29T14:26:10.984Z,23.57
2022-11-29T14:28:39.186Z,23.33
2022-11-29T14:31:09.910Z,24.30
2022-11-29T14:33:54.854Z,25.90
2022-11-29T14:36:27.783Z,25.13
2022-11-29T14:39:03.320Z,25.53
2022-11-29T14:41:51.344Z,26.83
2022-11-29T14:44:18.821Z,29.00
2022-11-29T14:46:46.181Z,26.70
2022-11-29T14:49:24.469Z,28.10
2022-11-29T14:52:22.897Z,27.10
2022-11-29T14:54:56.041Z,28.70
2022-11-29T14:57:51.006Z,28.90
2022-11-29T15:00:28.485Z,26.83
2022-11-29T15:02:58.066Z,27.77
2022-11-29T15:05:44.075Z,27.77
2022-11-29T15:08:17.499Z,26.33
2022-11-29T15:10:51.999Z,26.97
2022-11-29T15:13:35.069Z,27.30
2022-11-29T15:16:25.949Z,25.60
2022-11-29T15:19:21.019Z,26.37
2022-11-29T15:22:01.760Z,25.37
2022-11-29T15:24:28.994Z,28.07
2022-11-29T15:27:00.934Z,26.40
2022-11-29T15:29:29.071Z,25.83
2022-11-29T15:32:00.376Z,27.00
2022-11-29T15:34:50.516Z,24.93
2022-11-29T15:37:36.645Z,27.60
2022-11-29T15:40:21.315Z,26.07
2022-11-29T15:43:02.052Z,26.93
2022-11-29T15:45:33.782Z,27.57
2022-11-29T15:48:24.085Z,27.47
2022-11-29T15:51:09.587Z,27.20
2022-11-29T15:53:54.064Z,24.93
2022-11-29T15:56:45.960Z,23.80
2022-11-29T15:59:31.203Z,23.47
2022-11-29T16:02:00.878Z,24.10
2022-11-29T16:04:27.376Z,22.73
2022-11-29T16:06:55.062Z,22.93
2022-11-29T16:09:36.937Z,22.47
2022-11-29T16:12:04.037Z,21.13
2022-11-29T16:14:31.205Z,21.17
2022-11-29T16:17:00.750Z,23.30
2022-11-29T16:19:37.198Z,22.33
2022-11-29T16:22:12.629Z,21.00
2022-11-29T16:24:47.140Z,19.47
2022-11-29T16:27:14.282Z,21.10
2022-11-29T16:29:47.774Z,20.20
2022-11-29T16:32:15.035Z,21.17
2022-11-29T16:34:42.962Z,21.10
2022-11-29T16:37:22.524Z,21.47
2022-11-29T16:39:51.283Z,21.47
2022-11-29T16:42:29.159Z,21.80
2022-11-29T16:45:20.094Z,22.50
2022-11-29T16:47:52.638Z,21.03
2022-11-29T16:50:21.334Z,21.60
2022-11-29T16:52:54.821Z,20.90
2022-11-29T16:55:23.302Z,22.50
2022-11-29T16:57:50.217Z,20.53
2022-11-29T17:00:30.666Z,20.03
2022-11-29T17:02:58.336Z,19.50
2022-11-29T17:05:25.420Z,20.80
2022-11-29T17:07:52.137Z,20.03
2022-11-29T17:10:22.952Z,19.97
2022-11-29T17:12:50.215Z,19.17
2022-11-29T17:15:17.246Z,17.37
2022-11-29T17:17:44.263Z,18.90
2022-11-29T17:20:12.711Z,19.53
2022-11-29T17:22:39.316Z,18.53
2022-11-29T17:25:06.554Z,17.83
2022-11-29T17:27:33.045Z,19.53
2022-11-29T17:29:59.601Z,18.50
2022-11-29T17:32:27.134Z,18.00
2022-11-29T17:34:53.976Z,17.40
2022-11-29T17:37:20.592Z,17.30
2022-11-29T17:39:49.073Z,18.37
2022-11-29T17:42:15.892Z,17.90
2022-11-29T17:44:42.397Z,18.27
2022-11-29T17:47:09.081Z,19.03
2022-11-29T17:49:35.831Z,17.77
2022-11-29T17:52:02.404Z,20.17
2022-11-29T17:54:32.915Z,18.90
2022-11-29T17:57:04.551Z,19.97
2022-11-29T17:59:31.179Z,18.70
2022-11-29T18:01:57.812Z,19.27
2022-11-29T18:04:24.360Z,19.67
2022-11-29T18:06:50.998Z,20.40
2022-11-29T18:09:18.570Z,19.73
2022-11-29T18:11:48.481Z,21.23
2022-11-29T18:14:28.080Z,21.53
2022-11-29T18:16:54.817Z,21.80
2022-11-29T18:19:22.403Z,22.13
2022-11-29T18:21:49.648Z,22.30
2022-11-29T18:24:16.492Z,22.53
2022-11-29T18:26:43.561Z,22.63
2022-11-29T18:29:10.491Z,23.57
2022-11-29T18:31:39.598Z,22.47
2022-11-29T18:34:09.466Z,22.73
2022-11-29T18:36:42.907Z,24.23
2022-11-29T18:39:15.538Z,23.40
2022-11-29T18:41:43.912Z,23.13
2022-11-29T18:44:13.130Z,23.97
2022-11-29T18:46:41.591Z,26.00
2022-11-29T18:49:10.167Z,31.70
2022-11-29T18:51:38.098Z,27.50
2022-11-29T18:54:05.400Z,27.23
2022-11-29T18:56:34.542Z,25.23
2022-11-29T18:59:08.467Z,24.53
2022-11-29T19:01:41.117Z,25.17
2022-11-29T19:04:10.283Z,25.93
2022-11-29T19:06:40.021Z,27.47
2022-11-29T19:09:08.339Z,25.60
2022-11-29T19:11:35.158Z,26.27
2022-11-29T19:14:04.429Z,25.63
2022-11-29T19:16:32.819Z,24.00
2022-11-29T19:19:00.676Z,25.80
2022-11-29T19:21:29.173Z,23.70
2022-11-29T19:23:57.846Z,23.40
2022-11-29T19:26:26.642Z,36.10
2022-11-29T19:28:53.970Z,30.07
2022-11-29T19:31:25.441Z,26.20
2022-11-29T19:33:52.789Z,24.87
2022-11-29T19:36:30.347Z,24.10
2022-11-29T19:39:01.693Z,26.13
2022-11-29T19:41:33.176Z,26.13
2022-11-29T19:44:02.223Z,36.53
2022-11-29T19:46:39.693Z,30.33
2022-11-29T19:49:08.869Z,27.93
2022-11-29T19:51:36.077Z,28.67
2022-11-29T19:54:04.542Z,29.27
2022-11-29T19:56:31.858Z,28.93
2022-11-29T19:58:59.904Z,28.20
2022-11-29T20:01:37.813Z,30.73
2022-11-29T20:04:06.527Z,29.83
2022-11-29T20:06:33.205Z,29.50
2022-11-29T20:08:59.743Z,30.53
2022-11-29T20:11:26.889Z,31.07
2022-11-29T20:14:01.811Z,31.70
2022-11-29T20:16:29.506Z,32.37
2022-11-29T20:18:56.888Z,31.53
2022-11-29T20:21:28.956Z,31.17
2022-11-29T20:24:01.095Z,31.97
2022-11-29T20:26:28.522Z,30.73
2022-11-29T20:28:55.301Z,31.37
2022-11-29T20:31:23.201Z,32.03
2022-11-29T20:33:52.641Z,32.20
2022-11-29T20:36:43.141Z,31.50
2022-11-29T20:39:32.650Z,30.23
2022-11-29T20:42:08.246Z,30.63
2022-11-29T20:44:56.834Z,31.93
2022-11-29T20:47:25.499Z,30.40
2022-11-29T20:49:52.323Z,31.10
2022-11-29T20:52:37.337Z,31.57
2022-11-29T20:55:04.339Z,31.20
2022-11-29T20:57:31.027Z,33.20
2022-11-29T20:59:57.655Z,30.60
2022-11-29T21:02:24.785Z,30.03
2022-11-29T21:04:52.955Z,31.80
2022-11-29T21:07:19.618Z,32.50
2022-11-29T21:09:46.114Z,32.10
2022-11-29T21:12:13.059Z,32.67
2022-11-29T21:14:39.954Z,30.23
2022-11-29T21:17:06.849Z,31.80
2022-11-29T21:19:33.858Z,31.73
2022-11-29T21:22:28.739Z,31.67
2022-11-29T21:25:26.596Z,31.60
2022-11-29T21:27:55.111Z,31.43
2022-11-29T21:30:23.788Z,32.80
2022-11-29T21:32:51.005Z,31.67
2022-11-29T21:35:17.910Z,33.63
2022-11-29T21:37:44.726Z,33.27
2022-11-29T21:40:13.302Z,34.80
2022-11-29T21:42:40.009Z,37.07
2022-11-29T21:45:11.770Z,35.30
2022-11-29T21:47:41.708Z,35.07
2022-11-29T21:50:08.695Z,34.97
2022-11-29T21:52:35.256Z,33.53
2022-11-29T21:55:02.244Z,34.83
2022-11-29T21:57:28.768Z,35.23
2022-11-29T21:59:55.448Z,36.60
2022-11-29T22:02:22.148Z,36.37
2022-11-29T22:04:48.942Z,35.97
2022-11-29T22:07:15.626Z,35.03
2022-11-29T22:09:42.336Z,35.13
2022-11-29T22:12:31.974Z,35.67
2022-11-29T22:14:55.512Z,34.20
2022-11-29T22:17:21.962Z,35.87
2022-11-29T22:19:48.402Z,36.10
2022-11-29T22:22:15.222Z,38.47
2022-11-29T22:24:41.865Z,37.37
2022-11-29T22:27:08.268Z,35.83
2022-11-29T22:29:34.775Z,37.70
2022-11-29T22:32:02.303Z,39.20
2022-11-29T22:34:28.848Z,37.47
2022-11-29T22:36:55.854Z,38.63
2022-11-29T22:39:22.670Z,39.87
2022-11-29T22:41:53.843Z,39.63
2022-11-29T22:44:21.108Z,39.07
2022-11-29T22:46:47.759Z,38.23
2022-11-29T22:49:14.328Z,37.73
2022-11-29T22:51:40.918Z,39.97
2022-11-29T22:54:09.162Z,38.73
2022-11-29T22:56:38.021Z,39.80
2022-11-29T22:59:04.673Z,38.40
2022-11-29T23:01:33.476Z,37.57
2022-11-29T23:04:04.081Z,38.90
2022-11-29T23:06:32.587Z,37.17
2022-11-29T23:09:03.661Z,38.13
2022-11-29T23:11:30.498Z,36.97
2022-11-29T23:13:57.270Z,38.10
2022-11-29T23:16:26.180Z,36.20
2022-11-29T23:18:53.577Z,36.37
2022-11-29T23:21:30.179Z,37.37
2022-11-29T23:23:57.086Z,39.20
2022-11-29T23:26:24.949Z,36.93
2022-11-29T23:28:51.840Z,35.47
2022-11-29T23:31:18.757Z,36.50
2022-11-29T23:33:45.636Z,36.00
2022-11-29T23:36:13.278Z,36.43
2022-11-29T23:38:40.327Z,39.83
2022-11-29T23:41:07.790Z,37.97
2022-11-29T23:43:36.414Z,41.10
2022-11-29T23:46:11.779Z,39.53
2022-11-29T23:48:38.230Z,40.50
2022-11-29T23:51:05.045Z,40.60
2022-11-29T23:53:31.805Z,39.90
2022-11-29T23:56:06.296Z,41.07
2022-11-29T23:58:33.436Z,42.03
